createdAt,value
2024-05-09T00:00:41.248Z,16.50
2024-05-09T00:04:04.645Z,37.77
2024-05-09T00:07:07.269Z,26.73
2024-05-09T00:10:15.146Z,8.13
2024-05-09T00:13:25.170Z,8.73
2024-05-09T00:16:27.479Z,7.10
2024-05-09T00:19:30.073Z,6.90
2024-05-09T00:22:32.564Z,6.93
2024-05-09T00:25:35.424Z,6.70
2024-05-09T00:28:37.797Z,7.27
2024-05-09T00:31:40.272Z,6.07
2024-05-09T00:34:42.559Z,6.00
2024-05-09T00:37:45.179Z,6.47
2024-05-09T00:40:47.701Z,5.47
2024-05-09T00:43:50.358Z,6.10
2024-05-09T00:46:55.434Z,5.70
2024-05-09T00:49:58.056Z,5.77
2024-05-09T00:53:00.363Z,5.53
2024-05-09T00:56:05.369Z,5.20
2024-05-09T00:59:08.454Z,5.87
2024-05-09T01:02:11.758Z,5.53
2024-05-09T01:05:14.113Z,4.20
2024-05-09T01:08:17.910Z,4.90
2024-05-09T01:11:21.159Z,5.20
2024-05-09T01:14:23.845Z,5.53
2024-05-09T01:17:26.568Z,4.50
2024-05-09T01:20:39.658Z,5.10
2024-05-09T01:23:45.105Z,5.07
2024-05-09T01:26:48.391Z,4.93
2024-05-09T01:29:50.517Z,4.80
2024-05-09T01:32:53.203Z,4.43
2024-05-09T01:35:55.454Z,5.27
2024-05-09T01:38:58.065Z,5.40
2024-05-09T01:42:00.207Z,5.30
2024-05-09T01:45:02.727Z,5.80
2024-05-09T01:48:05.578Z,4.93
2024-05-09T01:51:08.460Z,5.80
2024-05-09T01:54:10.854Z,4.93
2024-05-09T01:57:13.746Z,6.77
2024-05-09T02:00:22.253Z,11.27
2024-05-09T02:03:32.625Z,22.00
2024-05-09T02:06:41.787Z,21.70
2024-05-09T02:09:44.329Z,14.13
2024-05-09T02:12:46.429Z,11.40
2024-05-09T02:15:52.399Z,8.80
2024-05-09T02:18:54.718Z,8.43
2024-05-09T02:21:57.309Z,8.33
2024-05-09T02:24:59.801Z,5.70
2024-05-09T02:28:02.389Z,6.67
2024-05-09T02:31:04.706Z,6.10
2024-05-09T02:34:07.323Z,5.33
2024-05-09T02:37:09.555Z,5.20
2024-05-09T02:40:14.896Z,5.00
2024-05-09T02:43:20.330Z,5.17
2024-05-09T02:46:22.830Z,6.00
2024-05-09T02:49:24.983Z,5.23
2024-05-09T02:52:27.604Z,5.37
2024-05-09T02:55:29.680Z,5.40
2024-05-09T02:58:32.226Z,5.90
2024-05-09T03:01:34.448Z,5.70
2024-05-09T03:04:38.708Z,5.57
2024-05-09T03:07:43.733Z,5.60
2024-05-09T03:10:46.272Z,5.97
2024-05-09T03:13:50.732Z,6.23
2024-05-09T03:16:53.920Z,5.80
2024-05-09T03:19:56.044Z,4.80
2024-05-09T03:22:58.660Z,4.70
2024-05-09T03:26:00.998Z,4.60
2024-05-09T03:29:03.663Z,4.43
2024-05-09T03:32:06.130Z,5.07
2024-05-09T03:35:08.690Z,5.27
2024-05-09T03:38:10.936Z,4.90
2024-05-09T03:41:13.866Z,5.37
2024-05-09T03:44:16.449Z,5.07
2024-05-09T03:47:19.038Z,5.20
2024-05-09T03:50:29.565Z,6.37
2024-05-09T03:53:36.251Z,6.37
2024-05-09T03:56:38.620Z,4.80
2024-05-09T03:59:41.371Z,4.60
2024-05-09T04:02:43.925Z,5.83
2024-05-09T04:05:46.629Z,4.83
2024-05-09T04:08:48.858Z,5.23
2024-05-09T04:11:52.770Z,5.43
2024-05-09T04:14:55.056Z,6.03
2024-05-09T04:17:57.864Z,5.50
2024-05-09T04:21:00.241Z,5.10
2024-05-09T04:24:02.869Z,5.10
2024-05-09T04:27:05.326Z,4.90
2024-05-09T04:30:12.454Z,5.63
2024-05-09T04:33:21.407Z,4.93
2024-05-09T04:36:25.337Z,6.70
2024-05-09T04:39:27.917Z,5.40
2024-05-09T04:42:30.644Z,5.30
2024-05-09T04:45:33.011Z,5.33
2024-05-09T04:48:37.081Z,5.23
2024-05-09T04:51:41.262Z,5.20
2024-05-09T04:54:43.995Z,5.97
2024-05-09T04:57:46.077Z,5.72
2024-05-09T05:00:48.610Z,5.80
2024-05-09T05:03:50.996Z,5.60
2024-05-09T05:06:53.715Z,5.70
2024-05-09T05:09:55.919Z,6.30
2024-05-09T05:13:18.183Z,5.70
2024-05-09T05:16:21.102Z,5.00
2024-05-09T05:19:23.680Z,6.00
2024-05-09T05:22:25.865Z,5.40
2024-05-09T05:25:29.712Z,5.85
2024-05-09T05:28:31.865Z,5.65
2024-05-09T05:31:34.389Z,5.68
2024-05-09T05:34:36.570Z,5.22
2024-05-09T05:37:39.068Z,6.57
2024-05-09T05:40:41.486Z,4.97
2024-05-09T05:43:44.175Z,5.15
2024-05-09T05:46:46.423Z,4.85
2024-05-09T05:49:48.962Z,4.47
2024-05-09T05:52:51.120Z,4.82
2024-05-09T05:55:53.738Z,3.70
2024-05-09T05:58:55.978Z,4.10
2024-05-09T06:01:58.542Z,5.82
2024-05-09T06:05:00.828Z,3.92
2024-05-09T06:08:03.594Z,3.35
2024-05-09T06:11:05.969Z,3.20
2024-05-09T06:14:09.325Z,3.20
2024-05-09T06:17:12.133Z,3.13
2024-05-09T06:20:20.711Z,3.30
2024-05-09T06:23:29.551Z,3.10
2024-05-09T06:26:32.813Z,3.42
2024-05-09T06:29:38.597Z,3.75
2024-05-09T06:32:43.724Z,3.85
2024-05-09T06:35:46.410Z,4.05
2024-05-09T06:38:49.178Z,3.72
2024-05-09T06:41:51.711Z,3.30
2024-05-09T06:44:54.229Z,3.10
2024-05-09T06:47:56.521Z,2.92
2024-05-09T06:50:59.103Z,3.15
2024-05-09T06:54:01.632Z,3.08
2024-05-09T06:57:04.860Z,2.50
2024-05-09T07:00:10.252Z,2.63
2024-05-09T07:03:18.128Z,2.10
2024-05-09T07:06:21.436Z,2.97
2024-05-09T07:09:24.050Z,2.33
2024-05-09T07:12:26.318Z,2.00
2024-05-09T07:15:28.885Z,2.45
2024-05-09T07:18:31.810Z,2.60
2024-05-09T07:21:34.401Z,1.90
2024-05-09T07:24:37.649Z,2.05
2024-05-09T07:27:40.232Z,2.17
2024-05-09T07:30:42.853Z,2.25
2024-05-09T07:33:45.734Z,1.70
2024-05-09T07:36:47.986Z,1.67
2024-05-09T07:39:50.474Z,2.05
2024-05-09T07:42:52.577Z,3.70
2024-05-09T07:45:57.108Z,2.38
2024-05-09T07:50:53.149Z,2.28
2024-05-09T07:55:34.741Z,2.35
2024-05-09T07:58:37.748Z,2.17
2024-05-09T08:01:40.149Z,1.77
2024-05-09T08:04:42.897Z,2.22
2024-05-09T08:07:47.077Z,1.75
2024-05-09T08:10:50.307Z,1.90
2024-05-09T08:13:52.539Z,2.40
2024-05-09T08:16:55.116Z,2.13
2024-05-09T08:19:57.360Z,2.42
2024-05-09T08:22:59.987Z,2.10
2024-05-09T08:26:02.123Z,1.65
2024-05-09T08:29:04.764Z,1.73
2024-05-09T08:32:08.072Z,2.15
2024-05-09T08:35:10.573Z,1.90
2024-05-09T08:38:12.996Z,3.05
2024-05-09T08:41:18.122Z,1.98
2024-05-09T08:44:21.162Z,1.95
2024-05-09T08:47:24.940Z,1.90
2024-05-09T08:50:35.896Z,1.75
2024-05-09T08:53:41.544Z,1.98
2024-05-09T08:56:46.913Z,1.50
2024-05-09T08:59:51.583Z,2.10
2024-05-09T09:02:55.194Z,1.63
2024-05-09T09:05:59.266Z,1.63
2024-05-09T09:09:03.333Z,1.75
2024-05-09T09:12:08.700Z,1.77
2024-05-09T09:15:12.432Z,2.47
2024-05-09T09:18:16.359Z,2.20
2024-05-09T09:21:18.645Z,2.72
2024-05-09T09:24:21.444Z,2.63
2024-05-09T09:27:23.584Z,2.40
2024-05-09T09:30:36.428Z,2.60
2024-05-09T09:33:43.648Z,2.50
2024-05-09T09:36:47.869Z,2.60
2024-05-09T09:39:50.915Z,2.47
2024-05-09T09:42:57.978Z,2.80
2024-05-09T09:46:04.986Z,2.58
2024-05-09T09:49:09.568Z,3.90
2024-05-09T09:52:13.238Z,2.85
2024-05-09T09:55:17.665Z,2.88
2024-05-09T09:58:20.213Z,5.43
2024-05-09T10:01:23.003Z,3.08
2024-05-09T10:04:25.376Z,3.10
2024-05-09T10:07:29.679Z,3.22
2024-05-09T10:10:34.475Z,3.08
2024-05-09T10:13:37.340Z,3.08
2024-05-09T10:16:45.785Z,2.85
2024-05-09T10:19:48.732Z,3.25
2024-05-09T10:22:50.863Z,3.20
2024-05-09T10:26:00.958Z,3.08
2024-05-09T10:29:17.080Z,3.08
2024-05-09T10:32:19.972Z,3.42
2024-05-09T10:35:23.111Z,3.47
2024-05-09T10:38:25.928Z,5.05
2024-05-09T10:41:28.360Z,3.20
2024-05-09T10:44:37.349Z,3.35
2024-05-09T10:47:42.499Z,3.63
2024-05-09T10:50:47.050Z,2.97
2024-05-09T10:53:49.294Z,3.08
2024-05-09T10:57:00.898Z,3.45
2024-05-09T11:00:06.326Z,3.92
2024-05-09T11:03:12.885Z,3.03
2024-05-09T11:06:16.346Z,3.50
2024-05-09T11:09:18.973Z,3.25
2024-05-09T11:12:23.667Z,3.20
2024-05-09T11:15:43.597Z,3.67
2024-05-09T11:18:55.161Z,3.38
2024-05-09T11:22:04.680Z,3.15
2024-05-09T11:25:08.590Z,3.22
2024-05-09T11:28:13.014Z,3.03
2024-05-09T11:31:15.417Z,3.35
2024-05-09T11:34:18.809Z,2.92
2024-05-09T11:37:21.099Z,3.72
2024-05-09T11:40:26.050Z,3.30
2024-05-09T11:43:34.405Z,2.97
2024-05-09T11:46:36.968Z,3.05
2024-05-09T11:49:39.187Z,2.97
2024-05-09T11:52:41.903Z,2.95
2024-05-09T11:55:44.134Z,2.90
2024-05-09T11:58:46.634Z,2.83
2024-05-09T12:01:48.805Z,2.75
2024-05-09T12:04:51.747Z,3.00
2024-05-09T12:07:54.832Z,3.28
2024-05-09T12:10:57.527Z,3.60
2024-05-09T12:13:59.731Z,2.80
2024-05-09T12:17:03.816Z,3.08
2024-05-09T12:20:11.354Z,3.85
2024-05-09T12:23:19.771Z,3.10
2024-05-09T12:26:21.961Z,3.50
2024-05-09T12:29:24.590Z,3.55
2024-05-09T12:32:26.922Z,3.53
2024-05-09T12:35:29.580Z,3.05
2024-05-09T12:38:31.733Z,3.08
2024-05-09T12:41:34.230Z,2.90
2024-05-09T12:44:36.337Z,2.95
2024-05-09T12:47:38.895Z,2.92
2024-05-09T12:50:42.025Z,3.28
2024-05-09T12:53:44.893Z,3.08
2024-05-09T12:56:47.140Z,2.67
2024-05-09T12:59:50.061Z,2.90
2024-05-09T13:02:52.184Z,3.20
2024-05-09T13:05:55.055Z,3.05
2024-05-09T13:08:57.340Z,3.53
2024-05-09T13:12:00.476Z,3.05
2024-05-09T13:15:02.629Z,2.90
2024-05-09T13:18:06.153Z,3.35
2024-05-09T13:21:08.388Z,2.85
2024-05-09T13:24:10.932Z,3.42
2024-05-09T13:27:13.234Z,3.20
2024-05-09T13:30:25.839Z,3.45
2024-05-09T13:33:33.050Z,3.50
2024-05-09T13:36:35.855Z,3.85
2024-05-09T13:39:38.391Z,3.65
2024-05-09T13:42:41.032Z,3.05
2024-05-09T13:45:43.420Z,4.30
2024-05-09T13:48:46.135Z,3.40
2024-05-09T13:51:48.437Z,2.88
2024-05-09T13:54:51.042Z,3.63
2024-05-09T13:57:53.297Z,3.50
2024-05-09T14:00:56.061Z,3.90
2024-05-09T14:03:58.481Z,3.35
2024-05-09T14:07:01.223Z,4.00
2024-05-09T14:10:05.231Z,3.22
2024-05-09T14:13:10.110Z,4.20
2024-05-09T14:16:12.532Z,4.22
2024-05-09T14:19:15.112Z,4.05
2024-05-09T14:22:17.419Z,3.28
2024-05-09T14:25:20.651Z,3.00
2024-05-09T14:28:23.187Z,3.28
2024-05-09T14:31:25.788Z,3.38
2024-05-09T14:34:28.056Z,3.30
2024-05-09T14:37:30.763Z,3.05
2024-05-09T14:40:41.588Z,2.92
2024-05-09T14:43:46.354Z,3.05
2024-05-09T14:46:48.562Z,4.05
2024-05-09T14:49:51.229Z,6.35
2024-05-09T14:52:53.375Z,5.03
2024-05-09T14:55:56.362Z,4.10
2024-05-09T14:58:58.697Z,3.22
2024-05-09T15:02:01.427Z,3.33
2024-05-09T15:05:04.734Z,3.55
2024-05-09T15:08:08.121Z,6.13
2024-05-09T15:11:10.650Z,3.38
2024-05-09T15:14:14.112Z,3.55
2024-05-09T15:17:16.814Z,3.60
2024-05-09T15:20:27.856Z,3.78
2024-05-09T15:23:36.764Z,3.65
2024-05-09T15:26:39.370Z,3.63
2024-05-09T15:29:41.715Z,2.85
2024-05-09T15:32:44.348Z,4.82
2024-05-09T15:35:47.120Z,5.80
2024-05-09T15:38:50.042Z,4.85
2024-05-09T15:41:56.487Z,3.50
2024-05-09T15:45:00.907Z,4.00
2024-05-09T15:48:04.288Z,3.65
2024-05-09T15:51:07.090Z,3.15
2024-05-09T15:54:09.580Z,4.00
2024-05-09T15:57:12.703Z,3.45
2024-05-09T16:00:24.694Z,5.85
2024-05-09T16:03:35.828Z,3.35
2024-05-09T16:06:38.136Z,3.10
2024-05-09T16:09:40.808Z,4.82
2024-05-09T16:12:42.956Z,3.15
2024-05-09T16:15:45.906Z,3.42
2024-05-09T16:18:48.384Z,4.05
2024-05-09T16:21:50.960Z,3.83
2024-05-09T16:24:53.151Z,3.22
2024-05-09T16:27:55.809Z,3.67
2024-05-09T16:30:59.441Z,2.80
2024-05-09T16:34:02.281Z,3.95
2024-05-09T16:37:06.514Z,3.17
2024-05-09T16:40:21.413Z,4.78
2024-05-09T16:43:27.992Z,2.75
2024-05-09T16:46:31.261Z,2.70
2024-05-09T16:49:33.676Z,2.75
2024-05-09T16:52:36.171Z,3.00
2024-05-09T16:55:38.579Z,2.83
2024-05-09T16:58:41.425Z,3.13
2024-05-09T17:01:43.822Z,3.42
2024-05-09T17:04:46.529Z,2.88
2024-05-09T17:07:49.844Z,3.28
2024-05-09T17:10:52.670Z,8.45
2024-05-09T17:13:54.919Z,5.97
2024-05-09T17:16:57.668Z,5.15
2024-05-09T17:19:59.838Z,2.70
2024-05-09T17:23:03.126Z,2.55
2024-05-09T17:26:05.582Z,3.10
2024-05-09T17:29:10.874Z,4.88
2024-05-09T17:32:14.287Z,4.35
2024-05-09T17:35:16.838Z,3.30
2024-05-09T17:38:19.824Z,3.55
2024-05-09T17:41:22.313Z,2.22
2024-05-09T17:44:24.552Z,2.17
2024-05-09T17:47:27.194Z,2.38
2024-05-09T17:53:34.850Z,4.03
2024-05-09T17:56:37.005Z,3.45
2024-05-09T17:59:39.546Z,3.42
2024-05-09T18:02:41.794Z,4.38
2024-05-09T18:05:45.241Z,4.05
2024-05-09T18:08:47.645Z,4.47
2024-05-09T18:11:50.127Z,6.20
2024-05-09T18:14:52.327Z,4.43
2024-05-09T18:17:55.055Z,4.15
2024-05-09T18:20:57.266Z,5.05
2024-05-09T18:24:00.324Z,5.00
2024-05-09T18:27:02.656Z,4.38
2024-05-09T18:30:09.432Z,4.68
2024-05-09T18:33:14.048Z,4.40
2024-05-09T18:36:16.845Z,5.22
2024-05-09T18:39:19.012Z,3.65
2024-05-09T18:42:21.492Z,3.67
2024-05-09T18:45:23.631Z,3.85
2024-05-09T18:48:26.220Z,3.80
2024-05-09T18:51:28.402Z,4.05
2024-05-09T18:54:31.109Z,4.18
2024-05-09T18:57:33.295Z,4.27
2024-05-09T19:00:39.012Z,4.78
2024-05-09T19:03:43.909Z,10.33
2024-05-09T19:06:46.964Z,12.97
2024-05-09T19:09:49.077Z,11.40
2024-05-09T19:12:51.666Z,21.08
2024-05-09T19:15:53.889Z,17.03
2024-05-09T19:18:57.571Z,19.77
2024-05-09T19:21:59.969Z,21.77
2024-05-09T19:25:02.648Z,22.13
2024-05-09T19:28:05.761Z,22.55
2024-05-09T19:31:08.562Z,16.42
2024-05-09T19:34:10.765Z,18.20
2024-05-09T19:37:13.563Z,21.50
2024-05-09T19:40:24.566Z,17.80
2024-05-09T19:43:35.876Z,17.73
2024-05-09T19:46:38.972Z,17.17
2024-05-09T19:49:41.629Z,17.17
2024-05-09T19:52:43.830Z,17.60
2024-05-09T19:55:46.338Z,21.37
2024-05-09T19:58:48.516Z,25.80
2024-05-09T20:01:51.173Z,29.83
2024-05-09T20:04:53.391Z,48.47
2024-05-09T20:07:56.090Z,42.97
2024-05-09T20:10:58.256Z,36.60
2024-05-09T20:14:01.110Z,38.67
2024-05-09T20:17:03.349Z,39.40
2024-05-09T20:20:11.317Z,32.47
2024-05-09T20:23:18.653Z,33.30
2024-05-09T20:26:21.406Z,27.93
2024-05-09T20:29:23.586Z,27.70
2024-05-09T20:32:26.286Z,23.87
2024-05-09T20:35:31.884Z,24.97
2024-05-09T20:38:34.541Z,23.23
2024-05-09T20:41:42.979Z,19.13
2024-05-09T20:44:45.460Z,18.30
2024-05-09T20:47:47.698Z,20.43
2024-05-09T20:50:50.617Z,20.70
2024-05-09T20:53:52.757Z,21.77
2024-05-09T20:56:55.273Z,22.87
2024-05-09T20:59:57.413Z,22.63
2024-05-09T21:03:00.025Z,24.33
2024-05-09T21:06:02.254Z,26.13
2024-05-09T21:09:04.823Z,27.00
2024-05-09T21:12:07.040Z,26.60
2024-05-09T21:15:09.619Z,26.00
2024-05-09T21:18:11.882Z,25.53
2024-05-09T21:21:14.406Z,24.33
2024-05-09T21:24:16.770Z,22.47
2024-05-09T21:27:19.307Z,21.73
2024-05-09T21:30:32.216Z,21.47
2024-05-09T21:33:43.168Z,23.27
2024-05-09T21:36:45.444Z,21.47
2024-05-09T21:39:48.118Z,19.60
2024-05-09T21:42:50.350Z,21.30
2024-05-09T21:45:52.959Z,21.77
2024-05-09T21:48:55.699Z,21.73
2024-05-09T21:51:58.251Z,23.33
2024-05-09T21:55:00.472Z,22.63
2024-05-09T21:58:03.516Z,22.30
2024-05-09T22:01:06.091Z,21.50
2024-05-09T22:04:08.817Z,20.83
2024-05-09T22:07:11.086Z,18.90
2024-05-09T22:10:22.669Z,18.37
2024-05-09T22:13:29.095Z,17.37
2024-05-09T22:16:31.910Z,15.67
2024-05-09T22:19:34.331Z,15.60
2024-05-09T22:22:37.071Z,15.30
2024-05-09T22:25:39.442Z,12.83
2024-05-09T22:28:42.441Z,13.60
2024-05-09T22:31:44.534Z,12.80
2024-05-09T22:34:47.195Z,12.43
2024-05-09T22:37:49.399Z,11.77
2024-05-09T22:40:52.340Z,12.33
2024-05-09T22:43:54.472Z,12.53
2024-05-09T22:46:57.082Z,12.70
2024-05-09T22:49:59.218Z,12.90
2024-05-09T22:53:02.081Z,11.60
2024-05-09T22:56:04.511Z,11.60
2024-05-09T22:59:07.167Z,11.40
2024-05-09T23:02:09.493Z,11.77
2024-05-09T23:05:12.358Z,11.67
2024-05-09T23:08:14.675Z,11.70
2024-05-09T23:11:17.423Z,12.00
2024-05-09T23:14:19.602Z,13.33
2024-05-09T23:17:22.362Z,11.67
2024-05-09T23:23:30.013Z,12.20
2024-05-09T23:26:32.332Z,12.27
2024-05-09T23:29:34.830Z,12.77
2024-05-09T23:32:37.002Z,12.10
2024-05-09T23:35:41.703Z,12.00
2024-05-09T23:38:43.879Z,13.40
2024-05-09T23:41:46.431Z,14.83
2024-05-09T23:44:48.560Z,15.13
2024-05-09T23:47:51.286Z,15.03
2024-05-09T23:50:53.510Z,15.47
2024-05-09T23:53:56.031Z,16.40
2024-05-09T23:56:58.136Z,15.90
